Terminal Aerodrome Forecast
Issued by NWS

Home | Current Version | Previous Version | Text Only | Print | Product List | Glossary On
Versions: 1 2 3 4 5 6 7 8 9 10 11 12 13 14 15 16 17 18 19 20 21 22 23
897
FTUS43 KFGF 061720
TAFDVL
TAF
KDVL 061720Z 0618/0718 31035G44KT 1/2SM -SN BLSN OVC015
      TEMPO 0618/0622 1/4SM -SN BLSN OVC006
     FM070600 30026KT 3SM BLSN OVC015
     FM070800 30024KT 3SM BLSN OVC015
     FM071200 30020G28KT P6SM OVC015
     FM071300 30020G28KT P6SM OVC020
     FM071500 30020G28KT P6SM OVC015
     FM071700 30021G31KT P6SM OVC020=

USA.gov is the U.S. government's official web portal to all federal, state and local government web resources and services.